Time;durP1;ratioP1;P1;durP2;ratioP2;P2;SDS_P1;SDS_P2;PMS_P1;PMS_P2;Temp;Humidity;BMP_temperature;BMP_pressure;BME280_temperature;BME280_humidity;BME280_pressure;Samples;Min_cycle;Max_cycle;Signal;HPM_P1;HPM_P2
2023/04/08 00:00:48;;;;;;;9.30;4.27;;;;;;;;;;5036352;28;20204;-40
2023/04/08 00:03:20;;;;;;;8.87;4.50;;;;;;;;;;5036244;28;20208;-40
2023/04/08 00:05:47;;;;;;;12.60;5.53;;;;;;;;;;5036166;28;20693;-39
2023/04/08 00:08:14;;;;;;;6.33;4.10;;;;;;;;;;5035946;28;20205;-39
2023/04/08 00:10:41;;;;;;;5.90;4.13;;;;;;;;;;5035944;28;20733;-40
2023/04/08 00:13:09;;;;;;;8.63;4.33;;;;;;;;;;5035909;28;20201;-39
2023/04/08 00:15:36;;;;;;;8.57;4.30;;;;;;;;;;5035972;28;20571;-40
2023/04/08 00:18:03;;;;;;;13.73;6.03;;;;;;;;;;5035821;28;20200;-39
2023/04/08 00:20:30;;;;;;;16.27;7.60;;;;;;;;;;5036044;28;20288;-39
2023/04/08 00:22:58;;;;;;;18.00;6.60;;;;;;;;;;5036137;28;20204;-40
2023/04/08 00:25:25;;;;;;;22.50;7.77;;;;;;;;;;5035514;28;20253;-40
2023/04/08 00:27:52;;;;;;;13.40;5.80;;;;;;;;;;5035675;28;20263;-39
2023/04/08 00:30:20;;;;;;;34.13;10.43;;;;;;;;;;5035340;28;20328;-40
2023/04/08 00:32:47;;;;;;;45.20;14.70;;;;;;;;;;5035615;28;20568;-39
2023/04/08 00:35:14;;;;;;;25.80;11.67;;;;;;;;;;5035792;28;20207;-40
2023/04/08 00:37:42;;;;;;;25.30;9.93;;;;;;;;;;5035098;28;20204;-40
2023/04/08 00:40:09;;;;;;;14.57;5.43;;;;;;;;;;5035438;28;20236;-39
2023/04/08 00:42:36;;;;;;;16.17;6.73;;;;;;;;;;5018461;28;20227;-40
2023/04/08 00:45:04;;;;;;;12.83;6.53;;;;;;;;;;5035191;28;20256;-43
2023/04/08 00:47:31;;;;;;;10.23;5.53;;;;;;;;;;5017881;28;20489;-39
2023/04/08 00:49:58;;;;;;;10.67;5.47;;;;;;;;;;5050921;28;20197;-41
2023/04/08 00:52:25;;;;;;;8.17;5.33;;;;;;;;;;5050775;28;20204;-39
2023/04/08 00:54:52;;;;;;;10.80;5.73;;;;;;;;;;5035182;28;20205;-39
2023/04/08 00:57:20;;;;;;;24.00;10.43;;;;;;;;;;5017426;28;20197;-40
2023/04/08 00:59:47;;;;;;;19.67;8.90;;;;;;;;;;5035047;28;20208;-40
2023/04/08 01:02:49;;;;;;;18.03;8.97;;;;;;;;;;5035011;28;20208;-40
2023/04/08 01:05:55;;;;;;;15.60;6.73;;;;;;;;;;5013669;28;20232;-40
2023/04/08 01:08:26;;;;;;;15.83;6.70;;;;;;;;;;5035047;28;20208;-39
2023/04/08 01:10:58;;;;;;;11.70;6.13;;;;;;;;;;5033956;28;20608;-39
2023/04/08 01:13:29;;;;;;;12.67;5.57;;;;;;;;;;5034802;28;20638;-39
2023/04/08 01:15:56;;;;;;;14.53;6.50;;;;;;;;;;5033663;28;20295;-39
2023/04/08 01:18:23;;;;;;;10.93;5.33;;;;;;;;;;5033803;28;20247;-39
2023/04/08 01:20:50;;;;;;;17.97;7.10;;;;;;;;;;5034602;28;20673;-39
2023/04/08 01:23:34;;;;;;;8.30;4.60;;;;;;;;;;5033446;28;20246;-39
2023/04/08 01:26:01;;;;;;;8.53;4.27;;;;;;;;;;5017122;28;20220;-39
2023/04/08 01:28:30;;;;;;;15.70;5.87;;;;;;;;;;5034683;28;20212;-39
2023/04/08 01:30:59;;;;;;;6.27;4.30;;;;;;;;;;5033225;28;20319;-39
2023/04/08 01:33:28;;;;;;;7.60;4.40;;;;;;;;;;5016970;28;20209;-39
2023/04/08 01:35:56;;;;;;;7.43;4.43;;;;;;;;;;5016636;28;20205;-39
2023/04/08 01:38:27;;;;;;;14.43;5.70;;;;;;;;;;5034226;28;20201;-39
2023/04/08 01:40:56;;;;;;;12.37;5.90;;;;;;;;;;5016823;28;20559;-39
2023/04/08 01:43:23;;;;;;;7.20;4.83;;;;;;;;;;5033286;28;20204;-39
2023/04/08 01:45:53;;;;;;;9.23;4.73;;;;;;;;;;5016393;28;20689;-40
2023/04/08 01:48:21;;;;;;;8.87;4.27;;;;;;;;;;5033008;28;20201;-39
2023/04/08 01:50:50;;;;;;;7.53;4.47;;;;;;;;;;5033592;28;20208;-39
2023/04/08 01:53:17;;;;;;;6.03;3.63;;;;;;;;;;5033039;28;20204;-40
2023/04/08 01:55:44;;;;;;;7.13;4.20;;;;;;;;;;5016832;28;20201;-39
2023/04/08 01:58:19;;;;;;;7.47;4.00;;;;;;;;;;5000364;28;20574;-41
2023/04/08 02:00:46;;;;;;;5.10;3.30;;;;;;;;;;5016334;28;20215;-40
2023/04/08 02:03:16;;;;;;;5.10;2.90;;;;;;;;;;5032640;28;20215;-40
2023/04/08 02:05:45;;;;;;;5.40;3.70;;;;;;;;;;5016136;28;20228;-39
2023/04/08 02:08:12;;;;;;;5.93;3.30;;;;;;;;;;5033689;28;20205;-39
2023/04/08 02:10:39;;;;;;;7.03;4.03;;;;;;;;;;5034008;28;20200;-39
2023/04/08 02:13:07;;;;;;;5.37;3.33;;;;;;;;;;5016512;28;20204;-40
2023/04/08 02:15:37;;;;;;;5.20;3.70;;;;;;;;;;5015752;28;20576;-39
2023/04/08 02:18:08;;;;;;;6.93;4.20;;;;;;;;;;5033915;28;20258;-39
2023/04/08 02:20:43;;;;;;;5.73;3.57;;;;;;;;;;5033821;28;20207;-39
2023/04/08 02:23:16;;;;;;;6.30;4.23;;;;;;;;;;5016096;28;20215;-39
2023/04/08 02:25:44;;;;;;;5.20;3.40;;;;;;;;;;5034070;28;20208;-39
2023/04/08 02:28:13;;;;;;;5.97;3.27;;;;;;;;;;5033438;28;20595;-39
2023/04/08 02:30:41;;;;;;;4.80;3.10;;;;;;;;;;5015716;28;20638;-39
2023/04/08 02:33:10;;;;;;;3.80;2.60;;;;;;;;;;5032589;28;20204;-40
2023/04/08 02:35:39;;;;;;;5.93;3.80;;;;;;;;;;5016169;28;20227;-40
2023/04/08 02:38:09;;;;;;;4.93;2.57;;;;;;;;;;5015933;28;20211;-40
2023/04/08 02:40:36;;;;;;;5.63;3.47;;;;;;;;;;5033499;28;20207;-40
2023/04/08 02:43:03;;;;;;;9.90;4.07;;;;;;;;;;5015780;28;20201;-39
2023/04/08 02:45:34;;;;;;;8.40;3.77;;;;;;;;;;5033516;28;20224;-40
2023/04/08 02:48:02;;;;;;;10.07;5.40;;;;;;;;;;5032609;28;20216;-40
2023/04/08 02:50:29;;;;;;;6.83;3.97;;;;;;;;;;5033350;28;20258;-39
2023/04/08 02:52:56;;;;;;;5.47;3.13;;;;;;;;;;5015681;28;20208;-40
2023/04/08 02:55:23;;;;;;;4.17;2.80;;;;;;;;;;5015881;28;20201;-39
2023/04/08 02:57:50;;;;;;;4.23;3.20;;;;;;;;;;5033014;28;20551;-39
2023/04/08 03:00:17;;;;;;;5.90;3.00;;;;;;;;;;5033552;28;20274;-40
2023/04/08 03:02:45;;;;;;;5.33;3.77;;;;;;;;;;5035104;28;20216;-40
2023/04/08 03:05:12;;;;;;;6.10;3.20;;;;;;;;;;5037212;28;20204;-39
2023/04/08 03:07:39;;;;;;;5.73;2.83;;;;;;;;;;5037385;28;20205;-44
2023/04/08 03:10:07;;;;;;;3.33;2.53;;;;;;;;;;5037053;28;20209;-40
2023/04/08 03:12:34;;;;;;;6.03;4.00;;;;;;;;;;5036947;28;20581;-40
2023/04/08 03:15:02;;;;;;;13.10;5.60;;;;;;;;;;5037176;28;20224;-39
2023/04/08 03:17:32;;;;;;;11.97;5.40;;;;;;;;;;5036910;28;20200;-40
2023/04/08 03:20:00;;;;;;;14.10;7.03;;;;;;;;;;5036788;28;20650;-39
2023/04/08 03:22:27;;;;;;;7.53;4.70;;;;;;;;;;5036617;28;20258;-44
2023/04/08 03:24:54;;;;;;;10.47;4.43;;;;;;;;;;5036542;28;20204;-39
2023/04/08 03:27:22;;;;;;;12.90;4.97;;;;;;;;;;5036402;28;20627;-40
2023/04/08 03:29:49;;;;;;;10.90;5.17;;;;;;;;;;5036425;28;20200;-40
2023/04/08 03:32:17;;;;;;;9.00;4.03;;;;;;;;;;5036567;28;20209;-40
2023/04/08 03:34:44;;;;;;;6.10;3.90;;;;;;;;;;5018922;28;20232;-40
2023/04/08 03:37:11;;;;;;;6.27;3.67;;;;;;;;;;5036281;28;20208;-40
2023/04/08 03:39:39;;;;;;;4.83;3.27;;;;;;;;;;5036562;28;20209;-41
2023/04/08 03:42:06;;;;;;;9.27;4.10;;;;;;;;;;5036292;28;20258;-39
2023/04/08 03:44:33;;;;;;;5.47;3.43;;;;;;;;;;5036332;28;20263;-40
2023/04/08 03:47:00;;;;;;;6.50;3.47;;;;;;;;;;5036034;28;20232;-39
2023/04/08 03:49:27;;;;;;;5.57;3.40;;;;;;;;;;5036024;28;20205;-41
2023/04/08 03:51:54;;;;;;;3.87;2.83;;;;;;;;;;5036380;28;20204;-39
2023/04/08 03:54:21;;;;;;;3.27;2.80;;;;;;;;;;5036178;28;20283;-39
2023/04/08 03:56:49;;;;;;;5.40;2.97;;;;;;;;;;5034913;28;20207;-39
2023/04/08 03:59:16;;;;;;;5.77;3.87;;;;;;;;;;5016439;28;20211;-40
2023/04/08 04:01:43;;;;;;;6.00;3.77;;;;;;;;;;5016612;28;20205;-40
2023/04/08 04:04:10;;;;;;;4.13;2.93;;;;;;;;;;5016065;28;20212;-39
2023/04/08 04:06:38;;;;;;;4.40;2.93;;;;;;;;;;5015881;28;20229;-39
2023/04/08 04:09:05;;;;;;;6.70;4.50;;;;;;;;;;5016005;28;20204;-40
2023/04/08 04:11:35;;;;;;;5.70;3.60;;;;;;;;;;5016126;28;20220;-39
2023/04/08 04:14:02;;;;;;;5.43;2.50;;;;;;;;;;5015495;28;20728;-40
2023/04/08 04:16:30;;;;;;;4.37;2.37;;;;;;;;;;5016390;28;20217;-40
2023/04/08 04:18:59;;;;;;;5.07;2.87;;;;;;;;;;5015809;28;20646;-40
2023/04/08 04:21:26;;;;;;;3.73;2.53;;;;;;;;;;5015737;28;20201;-41
2023/04/08 04:23:53;;;;;;;5.17;3.13;;;;;;;;;;5016840;28;20201;-40
2023/04/08 04:26:20;;;;;;;5.17;2.97;;;;;;;;;;5022035;28;20220;-40
2023/04/08 04:28:47;;;;;;;5.43;3.20;;;;;;;;;;5035863;28;20205;-42
2023/04/08 04:31:26;;;;;;;4.60;3.30;;;;;;;;;;5035993;28;20232;-40
2023/04/08 04:33:53;;;;;;;3.40;2.83;;;;;;;;;;5035919;28;20192;-40
2023/04/08 04:36:21;;;;;;;6.50;3.73;;;;;;;;;;5035759;28;20215;-39
2023/04/08 04:38:48;;;;;;;5.93;3.63;;;;;;;;;;5035489;28;20204;-39
2023/04/08 04:41:17;;;;;;;5.37;3.60;;;;;;;;;;5035491;28;20250;-39
2023/04/08 04:43:44;;;;;;;5.53;3.47;;;;;;;;;;5035621;28;20684;-42
2023/04/08 04:46:11;;;;;;;4.93;3.30;;;;;;;;;;5035087;28;20239;-40
2023/04/08 04:48:39;;;;;;;6.87;3.57;;;;;;;;;;5035029;28;20209;-43
2023/04/08 04:51:06;;;;;;;3.70;2.73;;;;;;;;;;5035864;28;20197;-41
2023/04/08 04:53:33;;;;;;;6.27;3.57;;;;;;;;;;5034800;28;20619;-44
2023/04/08 04:56:01;;;;;;;5.60;3.50;;;;;;;;;;5035352;28;20216;-44
2023/04/08 04:58:29;;;;;;;13.47;6.50;;;;;;;;;;5034996;28;20271;-43
2023/04/08 05:00:57;;;;;;;16.33;7.07;;;;;;;;;;5034888;28;20212;-42
2023/04/08 05:03:24;;;;;;;14.20;5.90;;;;;;;;;;5035257;28;20712;-43
2023/04/08 05:05:52;;;;;;;5.73;3.90;;;;;;;;;;5035068;28;20229;-44
2023/04/08 05:08:20;;;;;;;5.67;3.50;;;;;;;;;;5035128;28;20267;-41
2023/04/08 05:10:49;;;;;;;7.83;3.53;;;;;;;;;;5034950;28;20212;-43
2023/04/08 05:13:16;;;;;;;5.77;3.27;;;;;;;;;;5034553;28;20197;-44
2023/04/08 05:15:47;;;;;;;6.60;3.67;;;;;;;;;;5034540;28;20591;-43
2023/04/08 05:18:14;;;;;;;7.87;4.57;;;;;;;;;;5033032;28;20204;-42
2023/04/08 05:20:42;;;;;;;11.87;8.00;;;;;;;;;;5032976;28;20205;-40
2023/04/08 05:23:09;;;;;;;11.63;6.77;;;;;;;;;;5034393;28;20193;-40
2023/04/08 05:25:36;;;;;;;11.63;5.20;;;;;;;;;;5032800;28;20209;-45
2023/04/08 05:28:03;;;;;;;9.37;5.30;;;;;;;;;;5033031;28;20204;-44
2023/04/08 05:30:30;;;;;;;6.93;3.87;;;;;;;;;;5033108;28;21064;-41
2023/04/08 05:32:57;;;;;;;7.30;3.60;;;;;;;;;;5033612;28;20543;-41
2023/04/08 05:35:27;;;;;;;4.73;3.27;;;;;;;;;;5032823;28;20632;-40
2023/04/08 05:37:54;;;;;;;9.47;4.17;;;;;;;;;;5033159;28;20216;-41
2023/04/08 05:40:22;;;;;;;4.33;2.90;;;;;;;;;;5032934;28;20201;-43
2023/04/08 05:42:49;;;;;;;6.50;4.07;;;;;;;;;;5034207;28;20571;-41
2023/04/08 05:45:16;;;;;;;4.90;3.60;;;;;;;;;;5034402;28;20196;-40
2023/04/08 05:47:43;;;;;;;7.93;4.37;;;;;;;;;;5034148;28;20224;-41
2023/04/08 05:50:11;;;;;;;6.67;4.03;;;;;;;;;;5034090;28;20211;-42
2023/04/08 05:52:44;;;;;;;7.10;4.43;;;;;;;;;;5032379;28;20779;-47
2023/04/08 05:55:13;;;;;;;7.00;4.23;;;;;;;;;;5028219;28;20578;-42
2023/04/08 05:57:40;;;;;;;5.57;3.43;;;;;;;;;;5032556;28;20225;-41
2023/04/08 06:00:09;;;;;;;5.30;3.80;;;;;;;;;;5021547;28;20225;-42
2023/04/08 06:02:36;;;;;;;5.50;3.73;;;;;;;;;;5020558;28;20224;-40
2023/04/08 06:05:05;;;;;;;5.00;3.40;;;;;;;;;;5020954;28;20232;-43
2023/04/08 06:07:33;;;;;;;6.77;4.03;;;;;;;;;;5021097;28;20239;-43
2023/04/08 06:10:01;;;;;;;4.80;3.20;;;;;;;;;;5017542;28;20272;-40
2023/04/08 06:12:28;;;;;;;5.13;2.93;;;;;;;;;;5013422;28;20216;-41
2023/04/08 06:14:56;;;;;;;5.10;3.27;;;;;;;;;;5013396;28;20271;-41
2023/04/08 06:17:23;;;;;;;5.30;3.27;;;;;;;;;;5013426;28;20228;-40
2023/04/08 06:19:50;;;;;;;5.23;3.37;;;;;;;;;;5013515;28;20224;-40
2023/04/08 06:22:17;;;;;;;4.50;2.93;;;;;;;;;;5013090;28;20225;-42
2023/04/08 06:24:46;;;;;;;5.43;3.20;;;;;;;;;;5012701;28;20226;-43
2023/04/08 06:27:13;;;;;;;4.32;2.85;;;;;;;;;;5025706;28;20232;-44
2023/04/08 06:29:41;;;;;;;4.80;3.57;;;;;;;;;;5031555;28;20611;-48
2023/04/08 06:32:09;;;;;;;4.43;3.20;;;;;;;;;;5031340;28;20225;-41
2023/04/08 06:34:37;;;;;;;5.93;3.87;;;;;;;;;;5030434;28;20212;-45
2023/04/08 06:37:05;;;;;;;6.77;3.97;;;;;;;;;;5029491;28;20259;-43
2023/04/08 06:39:32;;;;;;;6.20;3.45;;;;;;;;;;5030965;28;20611;-43
2023/04/08 06:42:00;;;;;;;5.43;3.47;;;;;;;;;;5029619;28;20217;-44
2023/04/08 06:44:48;;;;;;;5.03;3.47;;;;;;;;;;4977336;28;20219;-44
2023/04/08 06:47:15;;;;;;;3.53;2.87;;;;;;;;;;5020114;28;20237;-44
2023/04/08 06:49:43;;;;;;;4.30;3.30;;;;;;;;;;5027442;28;20292;-42
2023/04/08 06:52:10;;;;;;;4.93;3.07;;;;;;;;;;5031170;28;20594;-43
2023/04/08 06:54:40;;;;;;;7.90;3.40;;;;;;;;;;5030572;28;20228;-42
2023/04/08 06:57:08;;;;;;;3.47;3.10;;;;;;;;;;5031396;28;20610;-46
2023/04/08 06:59:35;;;;;;;4.32;2.88;;;;;;;;;;5029283;28;20247;-43
2023/04/08 07:02:02;;;;;;;3.75;2.53;;;;;;;;;;5029938;28;20224;-43
2023/04/08 07:04:30;;;;;;;4.78;3.08;;;;;;;;;;5031009;28;20720;-44
2023/04/08 07:06:57;;;;;;;4.90;2.83;;;;;;;;;;5029789;28;20259;-46
2023/04/08 07:09:24;;;;;;;4.30;2.93;;;;;;;;;;5011282;28;20220;-43
2023/04/08 07:11:51;;;;;;;4.75;2.22;;;;;;;;;;5031111;28;20643;-43
2023/04/08 07:14:19;;;;;;;3.80;2.40;;;;;;;;;;5030858;28;20224;-42
2023/04/08 07:16:46;;;;;;;3.47;2.47;;;;;;;;;;5031742;28;20687;-44
2023/04/08 07:19:13;;;;;;;2.10;1.90;;;;;;;;;;5029161;28;20220;-46
2023/04/08 07:21:40;;;;;;;3.83;2.55;;;;;;;;;;5032239;28;20221;-42
2023/04/08 07:24:07;;;;;;;3.78;2.33;;;;;;;;;;5031819;28;20263;-44
2023/04/08 07:26:34;;;;;;;2.67;2.13;;;;;;;;;;5031964;28;20255;-41
2023/04/08 07:29:02;;;;;;;3.10;2.45;;;;;;;;;;5025976;28;20209;-45
2023/04/08 07:31:29;;;;;;;3.00;1.95;;;;;;;;;;5026454;28;20315;-44
2023/04/08 07:33:57;;;;;;;3.85;2.17;;;;;;;;;;5031771;28;20239;-43
2023/04/08 07:36:24;;;;;;;3.17;2.28;;;;;;;;;;5029402;28;20228;-44
2023/04/08 07:38:51;;;;;;;3.42;2.10;;;;;;;;;;5030064;28;20213;-43
2023/04/08 07:41:20;;;;;;;3.30;2.45;;;;;;;;;;5029495;28;20287;-47
2023/04/08 07:43:47;;;;;;;3.97;2.25;;;;;;;;;;5030602;28;20792;-44
2023/04/08 07:46:14;;;;;;;5.00;2.50;;;;;;;;;;5029863;28;20581;-43
2023/04/08 07:48:41;;;;;;;3.45;2.60;;;;;;;;;;5032250;28;20227;-44
2023/04/08 07:51:09;;;;;;;4.07;2.45;;;;;;;;;;5034336;28;20274;-45
2023/04/08 07:53:39;;;;;;;3.45;2.53;;;;;;;;;;5033737;28;20227;-46
2023/04/08 07:56:13;;;;;;;2.72;2.40;;;;;;;;;;5033855;28;20307;-43
2023/04/08 07:58:41;;;;;;;3.70;2.45;;;;;;;;;;5034746;28;20680;-43
2023/04/08 08:01:18;;;;;;;2.25;1.95;;;;;;;;;;5034976;28;20235;-43
2023/04/08 08:03:47;;;;;;;2.88;2.40;;;;;;;;;;5035270;28;20587;-43
2023/04/08 08:06:15;;;;;;;4.35;2.55;;;;;;;;;;5033234;28;20220;-43
2023/04/08 08:08:43;;;;;;;3.13;2.28;;;;;;;;;;5034288;28;20610;-44
2023/04/08 08:11:10;;;;;;;2.53;1.98;;;;;;;;;;5033889;28;20723;-45
2023/04/08 08:13:37;;;;;;;4.22;2.30;;;;;;;;;;5034147;28;20224;-43
2023/04/08 08:16:07;;;;;;;4.43;2.50;;;;;;;;;;5033630;28;20615;-44
2023/04/08 08:18:35;;;;;;;3.67;2.65;;;;;;;;;;5033697;28;20217;-44
2023/04/08 08:21:02;;;;;;;3.42;2.47;;;;;;;;;;5033701;28;20236;-45
2023/04/08 08:23:30;;;;;;;3.13;2.42;;;;;;;;;;5034539;28;20595;-45
2023/04/08 08:26:01;;;;;;;11.85;3.65;;;;;;;;;;5028507;28;20212;-44
2023/04/08 08:28:29;;;;;;;2.40;1.85;;;;;;;;;;5032410;28;20239;-44
2023/04/08 08:30:56;;;;;;;3.55;2.28;;;;;;;;;;5033390;28;20334;-48
2023/04/08 08:33:24;;;;;;;2.78;2.20;;;;;;;;;;5033015;28;20725;-44
2023/04/08 08:35:51;;;;;;;27.77;15.70;;;;;;;;;;5033538;28;20742;-44
2023/04/08 08:38:19;;;;;;;2.97;2.30;;;;;;;;;;5033439;28;20212;-44
2023/04/08 08:40:46;;;;;;;2.63;2.03;;;;;;;;;;5034241;28;20236;-43
2023/04/08 08:43:13;;;;;;;2.50;2.13;;;;;;;;;;5034170;28;20209;-44
2023/04/08 08:45:40;;;;;;;11.25;4.68;;;;;;;;;;5034922;28;20224;-44
2023/04/08 08:48:08;;;;;;;2.45;1.80;;;;;;;;;;5034385;28;20241;-47
2023/04/08 08:50:35;;;;;;;3.28;2.03;;;;;;;;;;5034731;28;20311;-44
2023/04/08 08:53:03;;;;;;;18.38;10.63;;;;;;;;;;5034053;28;20225;-44
2023/04/08 08:55:32;;;;;;;3.13;2.78;;;;;;;;;;5034455;28;20220;-44
2023/04/08 08:58:20;;;;;;;17.30;15.48;;;;;;;;;;5033788;28;20716;-45
2023/04/08 09:00:46;;;;;;;6.88;5.35;;;;;;;;;;5032422;28;20235;-47
2023/04/08 09:03:22;;;;;;;9.13;7.60;;;;;;;;;;5033165;28;20689;-47
2023/04/08 09:05:54;;;;;;;8.20;5.80;;;;;;;;;;5034031;28;20649;-44
2023/04/08 09:08:26;;;;;;;3.47;2.47;;;;;;;;;;5031867;28;20239;-45
2023/04/08 09:10:55;;;;;;;8.52;6.28;;;;;;;;;;5032907;28;20259;-44
2023/04/08 09:13:23;;;;;;;4.78;2.72;;;;;;;;;;5034950;28;20715;-45
2023/04/08 09:16:04;;;;;;;7.45;5.55;;;;;;;;;;5033475;28;20229;-45
2023/04/08 09:18:32;;;;;;;2.67;2.25;;;;;;;;;;5033817;28;20270;-44
2023/04/08 09:21:00;;;;;;;4.78;3.25;;;;;;;;;;5033871;28;20221;-45
2023/04/08 09:23:47;;;;;;;14.88;10.40;;;;;;;;;;5033885;28;20224;-46
2023/04/08 09:26:18;;;;;;;6.75;5.05;;;;;;;;;;5033679;28;20227;-45
2023/04/08 09:29:05;;;;;;;23.63;16.90;;;;;;;;;;5033699;28;20294;-45
2023/04/08 09:32:00;;;;;;;3.28;2.60;;;;;;;;;;5033917;28;20232;-45
2023/04/08 09:34:29;;;;;;;3.17;2.38;;;;;;;;;;5033849;28;20225;-45
2023/04/08 09:36:56;;;;;;;4.10;2.80;;;;;;;;;;5025528;28;20275;-46
2023/04/08 09:39:23;;;;;;;6.57;4.15;;;;;;;;;;5028283;28;20731;-45
2023/04/08 09:41:51;;;;;;;3.28;2.22;;;;;;;;;;5032782;28;20701;-45
2023/04/08 09:44:20;;;;;;;6.45;4.45;;;;;;;;;;5032340;28;20213;-47
2023/04/08 09:46:53;;;;;;;2.95;2.50;;;;;;;;;;5032305;28;20212;-45
2023/04/08 09:49:26;;;;;;;76.15;45.03;;;;;;;;;;5029400;28;20220;-45
2023/04/08 09:52:10;;;;;;;4.35;3.40;;;;;;;;;;5031191;28;20618;-46
2023/04/08 09:54:52;;;;;;;8.60;5.57;;;;;;;;;;5034804;28;20223;-45
2023/04/08 09:58:00;;;;;;;4.60;3.03;;;;;;;;;;5031053;28;20240;-45
2023/04/08 10:00:34;;;;;;;25.35;12.68;;;;;;;;;;5031079;28;20891;-52
2023/04/08 10:03:13;;;;;;;4.20;3.17;;;;;;;;;;5027237;28;20270;-45
2023/04/08 10:05:42;;;;;;;3.30;2.72;;;;;;;;;;5052241;28;20215;-45
2023/04/08 10:08:09;;;;;;;5.15;3.20;;;;;;;;;;5036286;28;20252;-47
2023/04/08 10:10:40;;;;;;;7.35;3.85;;;;;;;;;;5011891;28;20228;-45
2023/04/08 10:13:07;;;;;;;15.50;6.57;;;;;;;;;;5015159;28;20748;-46
2023/04/08 10:15:39;;;;;;;23.58;10.82;;;;;;;;;;5044076;28;20713;-45
2023/04/08 10:18:09;;;;;;;5.55;2.88;;;;;;;;;;5029294;28;20233;-51
2023/04/08 10:20:36;;;;;;;7.32;4.40;;;;;;;;;;5031657;28;20224;-45
2023/04/08 10:23:04;;;;;;;28.67;17.13;;;;;;;;;;5031587;28;20553;-45
2023/04/08 10:25:35;;;;;;;5.82;3.42;;;;;;;;;;5032783;28;21524;-46
2023/04/08 10:28:26;;;;;;;10.13;5.07;;;;;;;;;;5032955;28;20252;-45
2023/04/08 10:30:55;;;;;;;8.00;5.10;;;;;;;;;;5027511;28;20244;-45
2023/04/08 10:33:30;;;;;;;4.95;3.55;;;;;;;;;;5032290;28;20234;-45
2023/04/08 10:36:11;;;;;;;4.68;3.17;;;;;;;;;;5014241;28;20235;-45
2023/04/08 10:38:38;;;;;;;6.13;3.72;;;;;;;;;;5027586;28;20213;-48
2023/04/08 10:41:05;;;;;;;4.35;3.20;;;;;;;;;;5032512;28;20225;-45
2023/04/08 10:43:33;;;;;;;6.20;3.42;;;;;;;;;;5031412;28;20235;-46
2023/04/08 10:46:01;;;;;;;8.15;4.78;;;;;;;;;;5031581;28;20231;-44
2023/04/08 10:48:28;;;;;;;7.07;3.58;;;;;;;;;;5030011;28;20236;-49
2023/04/08 10:51:00;;;;;;;6.10;3.10;;;;;;;;;;5031602;28;20620;-45
2023/04/08 10:53:32;;;;;;;4.65;3.33;;;;;;;;;;5032089;28;20755;-44
2023/04/08 10:56:14;;;;;;;7.13;4.30;;;;;;;;;;5031222;28;20220;-44
2023/04/08 10:58:49;;;;;;;5.53;3.78;;;;;;;;;;5029459;28;20248;-48
2023/04/08 11:01:17;;;;;;;4.47;3.10;;;;;;;;;;5011210;28;20220;-44
2023/04/08 11:03:45;;;;;;;13.50;6.20;;;;;;;;;;5031822;28;20705;-48
2023/04/08 11:06:12;;;;;;;6.38;3.45;;;;;;;;;;5029833;28;20221;-45
2023/04/08 11:08:39;;;;;;;5.88;3.45;;;;;;;;;;5028448;28;20232;-46
2023/04/08 11:11:10;;;;;;;5.95;3.10;;;;;;;;;;5031326;28;20274;-48
2023/04/08 11:13:41;;;;;;;10.95;5.53;;;;;;;;;;5028818;28;20577;-44
2023/04/08 11:16:20;;;;;;;3.78;2.85;;;;;;;;;;5029191;28;20236;-48
2023/04/08 11:18:48;;;;;;;5.72;3.38;;;;;;;;;;5025804;28;20216;-48
2023/04/08 11:21:16;;;;;;;4.90;2.97;;;;;;;;;;5029668;28;20224;-44
2023/04/08 11:23:43;;;;;;;6.38;4.15;;;;;;;;;;5030003;28;20219;-42
2023/04/08 11:26:10;;;;;;;4.47;3.35;;;;;;;;;;5032475;28;20217;-46
2023/04/08 11:28:37;;;;;;;6.05;3.55;;;;;;;;;;5032551;28;20228;-42
2023/04/08 11:31:07;;;;;;;7.93;4.07;;;;;;;;;;5031300;28;20258;-43
2023/04/08 11:33:35;;;;;;;4.50;2.88;;;;;;;;;;5030605;28;20242;-48
2023/04/08 11:36:07;;;;;;;4.43;3.03;;;;;;;;;;5031124;28;20209;-50
2023/04/08 11:38:39;;;;;;;16.30;6.95;;;;;;;;;;5024407;28;20244;-48
2023/04/08 11:41:07;;;;;;;9.05;5.22;;;;;;;;;;5030873;28;20244;-44
2023/04/08 11:43:35;;;;;;;6.18;3.78;;;;;;;;;;5031778;28;20270;-49
2023/04/08 11:46:12;;;;;;;4.70;3.70;;;;;;;;;;5030932;28;20232;-49
2023/04/08 11:48:39;;;;;;;3.80;3.17;;;;;;;;;;5025943;28;20224;-45
2023/04/08 11:51:11;;;;;;;14.23;9.10;;;;;;;;;;5032893;28;20224;-44
2023/04/08 11:53:38;;;;;;;6.88;3.33;;;;;;;;;;5032846;28;20228;-44
2023/04/08 11:56:18;;;;;;;5.60;3.45;;;;;;;;;;5034449;28;20705;-45
2023/04/08 11:58:46;;;;;;;5.55;2.45;;;;;;;;;;5031939;28;20685;-44
2023/04/08 12:01:14;;;;;;;4.65;2.95;;;;;;;;;;5033076;28;20236;-49
2023/04/08 12:03:58;;;;;;;5.10;3.00;;;;;;;;;;5032824;28;20693;-44
2023/04/08 12:06:27;;;;;;;5.13;3.17;;;;;;;;;;5034609;28;20212;-44
2023/04/08 12:08:55;;;;;;;5.38;3.22;;;;;;;;;;5017150;28;20233;-44
2023/04/08 12:11:23;;;;;;;4.50;2.63;;;;;;;;;;5034468;28;20225;-45
2023/04/08 12:13:51;;;;;;;4.85;3.03;;;;;;;;;;5033477;28;20250;-45
2023/04/08 12:16:19;;;;;;;14.20;7.28;;;;;;;;;;5034347;28;20225;-45
2023/04/08 12:18:46;;;;;;;4.70;3.13;;;;;;;;;;5033969;28;20299;-45
2023/04/08 12:21:14;;;;;;;4.75;3.53;;;;;;;;;;5034269;28;20225;-45
2023/04/08 12:23:41;;;;;;;6.80;4.40;;;;;;;;;;5033890;28;20229;-46
2023/04/08 12:26:08;;;;;;;8.57;3.58;;;;;;;;;;5034822;28;20236;-45
2023/04/08 12:28:36;;;;;;;7.60;4.05;;;;;;;;;;5034612;28;20652;-46
2023/04/08 12:31:03;;;;;;;6.88;3.47;;;;;;;;;;5034645;28;20243;-49
2023/04/08 12:33:31;;;;;;;10.30;6.35;;;;;;;;;;5034208;28;20244;-43
2023/04/08 12:35:58;;;;;;;4.03;2.92;;;;;;;;;;5035647;28;20220;-49
2023/04/08 12:38:26;;;;;;;10.57;6.00;;;;;;;;;;5033729;28;20306;-46
2023/04/08 12:40:53;;;;;;;4.03;2.65;;;;;;;;;;5033888;28;20229;-46
2023/04/08 12:43:22;;;;;;;8.52;5.13;;;;;;;;;;5034056;28;20220;-47
2023/04/08 12:45:50;;;;;;;3.53;2.67;;;;;;;;;;5033411;28;20216;-46
2023/04/08 12:48:17;;;;;;;14.82;9.68;;;;;;;;;;5032885;28;20705;-48
2023/04/08 12:50:45;;;;;;;7.05;4.50;;;;;;;;;;5031691;28;20732;-48
2023/04/08 12:53:12;;;;;;;4.68;2.67;;;;;;;;;;5031339;28;20885;-49
2023/04/08 12:55:40;;;;;;;7.00;3.58;;;;;;;;;;5041148;28;20270;-47
2023/04/08 12:58:09;;;;;;;3.42;2.63;;;;;;;;;;5052049;28;20234;-47
2023/04/08 13:00:37;;;;;;;7.32;3.97;;;;;;;;;;5051364;28;20635;-45
2023/04/08 13:03:05;;;;;;;7.45;3.50;;;;;;;;;;5035285;28;20220;-46
2023/04/08 13:05:32;;;;;;;3.50;2.65;;;;;;;;;;5041103;28;20228;-45
2023/04/08 13:08:11;;;;;;;3.03;2.35;;;;;;;;;;5036133;28;20235;-50
2023/04/08 13:10:38;;;;;;;4.63;2.95;;;;;;;;;;5029703;28;20220;-46
2023/04/08 13:13:05;;;;;;;4.65;2.58;;;;;;;;;;5031972;28;20223;-46
2023/04/08 13:15:32;;;;;;;4.53;2.80;;;;;;;;;;5031856;28;20209;-46
2023/04/08 13:18:00;;;;;;;5.93;3.42;;;;;;;;;;5030232;28;20220;-53
2023/04/08 13:20:27;;;;;;;5.13;2.80;;;;;;;;;;5032656;28;20239;-49
2023/04/08 13:22:54;;;;;;;6.50;4.28;;;;;;;;;;5015778;28;20212;-51
2023/04/08 13:25:21;;;;;;;5.43;3.60;;;;;;;;;;5033988;28;20228;-47
2023/04/08 13:27:49;;;;;;;7.53;5.35;;;;;;;;;;5032323;28;20216;-46
2023/04/08 13:30:16;;;;;;;4.70;2.95;;;;;;;;;;5029284;28;20231;-47
2023/04/08 13:32:43;;;;;;;6.90;4.88;;;;;;;;;;5029798;28;20232;-48
2023/04/08 13:35:10;;;;;;;3.78;2.75;;;;;;;;;;5032177;28;20259;-46
2023/04/08 13:37:38;;;;;;;3.35;2.80;;;;;;;;;;5029676;28;20616;-46
2023/04/08 13:40:07;;;;;;;5.80;3.63;;;;;;;;;;5031522;28;20240;-46
2023/04/08 13:42:35;;;;;;;4.32;2.75;;;;;;;;;;5031693;28;20235;-46
2023/04/08 13:45:02;;;;;;;4.88;2.63;;;;;;;;;;5032054;28;20271;-46
2023/04/08 13:47:29;;;;;;;4.75;2.97;;;;;;;;;;5032253;28;20216;-47
2023/04/08 13:49:56;;;;;;;4.30;2.88;;;;;;;;;;5032939;28;20240;-46
2023/04/08 13:52:24;;;;;;;3.60;2.45;;;;;;;;;;5032104;28;20220;-49
2023/04/08 13:54:51;;;;;;;2.95;2.28;;;;;;;;;;5029119;28;20583;-46
2023/04/08 13:57:19;;;;;;;3.58;2.30;;;;;;;;;;5013427;28;20217;-46
2023/04/08 13:59:46;;;;;;;11.88;6.28;;;;;;;;;;5028601;28;20324;-46
2023/04/08 14:02:13;;;;;;;10.95;4.75;;;;;;;;;;5031636;28;20697;-46
2023/04/08 14:04:41;;;;;;;29.83;11.55;;;;;;;;;;5031319;28;20212;-48
2023/04/08 14:07:08;;;;;;;38.08;15.82;;;;;;;;;;5030897;28;20224;-46
2023/04/08 14:09:35;;;;;;;14.38;7.47;;;;;;;;;;5026870;28;20726;-50
2023/04/08 14:12:03;;;;;;;2.47;2.17;;;;;;;;;;5031567;28;20239;-46
2023/04/08 14:14:30;;;;;;;3.60;2.22;;;;;;;;;;5031449;28;20220;-46
2023/04/08 14:16:57;;;;;;;3.40;2.28;;;;;;;;;;5031629;28;20278;-46
2023/04/08 14:19:24;;;;;;;4.00;2.80;;;;;;;;;;5031584;28;20216;-45
2023/04/08 14:21:51;;;;;;;32.25;13.75;;;;;;;;;;5031017;28;20221;-45
2023/04/08 14:24:19;;;;;;;28.10;11.18;;;;;;;;;;5031241;28;20617;-46
2023/04/08 14:26:46;;;;;;;15.18;7.40;;;;;;;;;;5031691;28;20216;-49
2023/04/08 14:29:13;;;;;;;20.77;7.95;;;;;;;;;;5031094;28;20574;-46
2023/04/08 14:31:40;;;;;;;17.77;7.47;;;;;;;;;;5032428;28;20693;-47
2023/04/08 14:34:07;;;;;;;7.88;3.85;;;;;;;;;;5033189;28;20231;-45
2023/04/08 14:36:34;;;;;;;6.47;2.92;;;;;;;;;;5032266;28;20228;-45
2023/04/08 14:39:02;;;;;;;10.63;4.85;;;;;;;;;;5031740;28;20217;-47
2023/04/08 14:41:29;;;;;;;18.85;5.57;;;;;;;;;;5032363;28;20678;-52
2023/04/08 14:43:56;;;;;;;31.02;11.82;;;;;;;;;;5032505;28;20244;-46
2023/04/08 14:46:25;;;;;;;35.17;13.02;;;;;;;;;;5032856;28;20243;-46
2023/04/08 14:48:54;;;;;;;8.85;3.63;;;;;;;;;;5032852;28;20232;-47
2023/04/08 14:51:22;;;;;;;5.63;3.10;;;;;;;;;;5032544;28;20228;-49